This is the latest recevied weather packets stored in our database for station/object IZ1UKX-13. If no packets are shown the sender has not sent any weather packets the latest 10 day(s).
| Time | Temp. | Humidity | Pressure | Rain* | Wind** | Luminosity | Snow |
|---|---|---|---|---|---|---|---|
| 1777804117 | 19.44° C | 52% | 1023.2 hPa | 0 mm | - | 0 W/m² | - |
| 1777802917 | 20.56° C | 48% | 1023.2 hPa | 0 mm | - | 0 W/m² | - |
| 1777802617 | 20.56° C | 46% | 1022.7 hPa | 0 mm | - | 0 W/m² | - |
| 1777802317 | 20.56° C | 47% | 1023.2 hPa | 0 mm | - | 0 W/m² | - |
| 1777801717 | 20.56° C | 46% | 1023.2 hPa | 0 mm | - | 0 W/m² | - |
| 1777801117 | 20° C | 45% | 1023.2 hPa | 0 mm | - | 0 W/m² | - |
| 1777800818 | 20° C | 46% | 1023.2 hPa | 0 mm | - | 0 W/m² | - |
| 1777800518 | 19.44° C | 46% | 1023.2 hPa | 0 mm | - | 0 W/m² | - |
| 1777800218 | 19.44° C | 48% | 1023.2 hPa | 0 mm | - | 0 W/m² | - |
| 1777799917 | 19.44° C | 49% | 1023.2 hPa | 0 mm | - | 0 W/m² | - |
| 1777799617 | 19.44° C | 49% | 1023.2 hPa | 0 mm | - | 0 W/m² | - |
| 1777799318 | 19.44° C | 50% | 1023.2 hPa | 0 mm | - | 0 W/m² | - |
| 1777799017 | 19.44° C | 50% | 1023.2 hPa | 0 mm | - | 0 W/m² | - |
| 1777798717 | 19.44° C | 50% | 1023.2 hPa | 0 mm | - | 0 W/m² | - |
| 1777798417 | 18.89° C | 50% | 1023.8 hPa | 0 mm | - | 0 W/m² | - |
| 1777798393 | 18.89° C | 50% | 1023.2 hPa | 0 mm | - | 0 W/m² | - |
| 1777798368 | 18.89° C | 50% | 1023.2 hPa | 0 mm | - | 0 W/m² | - |
| 1777797768 | 19.44° C | 44% | 1023.2 hPa | 0 mm | - | 0 W/m² | - |
| 1777797468 | 18.89° C | 46% | 1023.2 hPa | 0 mm | - | 0 W/m² | - |
| 1777797167 | 18.33° C | 46% | 1023.6 hPa | 0 mm | - | 0 W/m² | - |
| 1777796868 | 18.33° C | 45% | 1023.6 hPa | 0 mm | - | 0 W/m² | - |
| 1777796568 | 18.33° C | 45% | 1023.6 hPa | 0 mm | - | 0 W/m² | - |
| 1777796267 | 18.33° C | 45% | 1023.2 hPa | 0 mm | - | 0 W/m² | - |
| 1777795968 | 19.44° C | 43% | 1023.2 hPa | 0 mm | - | 0 W/m² | - |
| 1777795667 | 20° C | 42% | 1023.2 hPa | 0 mm | - | 0 W/m² | - |
* Rain latest hour (hover to see other rain measurements)
** Current wind speed in m/s (hover to see current wind gust speed)